createdAt,value
2023-03-25T00:02:17.827Z,10.70
2023-03-25T00:04:57.565Z,10.60
2023-03-25T00:07:29.850Z,9.90
2023-03-25T00:10:01.073Z,10.40
2023-03-25T00:12:37.336Z,11.10
2023-03-25T00:15:14.012Z,9.50
2023-03-25T00:17:46.525Z,10.00
2023-03-25T00:20:19.523Z,9.80
2023-03-25T00:22:58.088Z,10.00
2023-03-25T00:25:32.238Z,9.20
2023-03-25T00:28:07.275Z,10.00
2023-03-25T00:30:43.755Z,9.80
2023-03-25T00:33:21.047Z,10.30
2023-03-25T00:35:58.787Z,9.40
2023-03-25T00:38:35.086Z,10.20
2023-03-25T00:41:17.321Z,9.30
2023-03-25T00:44:00.763Z,9.70
2023-03-25T00:46:39.630Z,8.30
2023-03-25T00:49:15.339Z,9.50
2023-03-25T00:51:53.102Z,8.90
2023-03-25T00:54:26.973Z,8.80
2023-03-25T00:57:03.677Z,8.90
2023-03-25T00:59:36.854Z,10.10
2023-03-25T01:02:09.893Z,10.70
2023-03-25T01:04:41.891Z,10.50
2023-03-25T01:07:31.667Z,9.20
2023-03-25T01:10:02.697Z,8.90
2023-03-25T01:12:41.624Z,9.20
2023-03-25T01:15:12.149Z,9.10
2023-03-25T01:17:46.372Z,10.00
2023-03-25T01:20:21.749Z,10.20
2023-03-25T01:22:58.487Z,11.30
2023-03-25T01:25:41.806Z,10.60
2023-03-25T01:28:20.786Z,10.80
2023-03-25T01:31:09.433Z,11.40
2023-03-25T01:33:43.235Z,12.90
2023-03-25T01:36:17.238Z,11.40
2023-03-25T01:38:51.309Z,11.80
2023-03-25T01:41:35.681Z,11.40
2023-03-25T01:44:17.870Z,12.10
2023-03-25T01:46:54.266Z,12.50
2023-03-25T01:49:52.998Z,11.60
2023-03-25T01:52:31.548Z,13.40
2023-03-25T01:55:05.836Z,14.20
2023-03-25T01:57:43.698Z,15.40
2023-03-25T02:00:17.754Z,14.80
2023-03-25T02:02:59.932Z,14.00
2023-03-25T02:05:46.878Z,15.10
2023-03-25T02:08:17.295Z,13.60
2023-03-25T02:10:51.955Z,14.30
2023-03-25T02:13:22.758Z,14.60
2023-03-25T02:16:21.113Z,15.10
2023-03-25T02:19:20.482Z,15.60
2023-03-25T02:22:14.333Z,15.00
2023-03-25T02:25:45.578Z,14.70
2023-03-25T02:28:51.646Z,16.00
2023-03-25T02:31:52.301Z,14.80
2023-03-25T02:34:37.395Z,13.60
2023-03-25T02:37:45.242Z,13.40
2023-03-25T02:40:26.329Z,12.60
2023-03-25T02:43:04.404Z,10.50
2023-03-25T02:45:46.320Z,8.80
2023-03-25T02:48:53.729Z,10.10
2023-03-25T02:52:08.025Z,8.70
2023-03-25T02:54:43.938Z,11.60
2023-03-25T02:57:18.874Z,10.80
2023-03-25T02:59:54.083Z,11.50
2023-03-25T03:02:27.265Z,12.30
2023-03-25T03:05:02.961Z,14.50
2023-03-25T03:07:49.679Z,16.00
2023-03-25T03:10:32.086Z,16.30
2023-03-25T03:13:46.886Z,17.30
2023-03-25T03:16:33.446Z,17.40
2023-03-25T03:19:45.985Z,16.10
2023-03-25T03:22:25.281Z,16.60
2023-03-25T03:25:37.104Z,15.20
2023-03-25T03:28:37.726Z,14.30
2023-03-25T03:31:48.170Z,15.80
2023-03-25T03:35:02.172Z,15.00
2023-03-25T03:37:42.366Z,16.20
2023-03-25T03:40:24.890Z,13.70
2023-03-25T03:43:43.584Z,14.20
2023-03-25T03:46:32.379Z,13.40
2023-03-25T03:49:16.827Z,14.40
2023-03-25T03:52:03.420Z,15.60
2023-03-25T03:55:03.197Z,17.40
2023-03-25T03:57:48.172Z,16.50
2023-03-25T04:00:28.043Z,16.80
2023-03-25T04:03:15.800Z,17.80
2023-03-25T04:05:52.702Z,16.70
2023-03-25T04:09:00.105Z,18.10
2023-03-25T04:11:49.634Z,17.80
2023-03-25T04:14:21.988Z,17.30
2023-03-25T04:16:59.731Z,14.90
2023-03-25T04:19:33.742Z,16.60
2023-03-25T04:22:04.254Z,14.50
2023-03-25T04:24:37.277Z,14.80
2023-03-25T04:27:05.854Z,14.80
2023-03-25T04:29:35.925Z,15.10
2023-03-25T04:32:07.657Z,15.60
2023-03-25T04:34:36.504Z,14.60
2023-03-25T04:37:10.432Z,13.70
2023-03-25T04:39:39.554Z,14.50
2023-03-25T04:42:13.452Z,13.90
2023-03-25T04:44:45.818Z,12.20
2023-03-25T04:47:17.447Z,12.50
2023-03-25T04:49:49.058Z,13.30
2023-03-25T04:52:17.427Z,12.30
2023-03-25T04:54:46.134Z,14.00
2023-03-25T04:57:14.901Z,13.30
2023-03-25T04:59:46.517Z,13.60
2023-03-25T05:02:18.889Z,11.30
2023-03-25T05:04:53.565Z,9.90
2023-03-25T05:07:26.545Z,8.80
2023-03-25T05:10:02.484Z,8.30
2023-03-25T05:12:31.106Z,8.00
2023-03-25T05:14:59.756Z,7.50
2023-03-25T05:17:34.872Z,7.30
2023-03-25T05:20:14.627Z,9.00
2023-03-25T05:22:48.500Z,8.00
2023-03-25T05:25:35.421Z,8.90
2023-03-25T05:28:15.818Z,12.50
2023-03-25T05:30:49.741Z,15.20
2023-03-25T05:33:29.416Z,11.10
2023-03-25T05:36:05.023Z,10.60
2023-03-25T05:38:37.044Z,11.30
2023-03-25T05:41:10.440Z,13.60
2023-03-25T05:43:47.178Z,14.30
2023-03-25T05:46:22.788Z,15.20
2023-03-25T05:48:56.767Z,13.10
2023-03-25T05:51:36.882Z,13.00
2023-03-25T05:54:24.103Z,8.10
2023-03-25T05:56:56.365Z,6.50
2023-03-25T05:59:26.192Z,7.50
2023-03-25T06:02:00.142Z,7.20
2023-03-25T06:04:33.914Z,8.00
2023-03-25T06:07:19.293Z,8.30
2023-03-25T06:09:56.174Z,8.30
2023-03-25T06:12:32.824Z,8.80
2023-03-25T06:15:17.538Z,8.20
2023-03-25T06:17:53.557Z,8.30
2023-03-25T06:20:24.550Z,8.20
2023-03-25T06:23:03.021Z,7.10
2023-03-25T06:25:40.692Z,5.70
2023-03-25T06:28:18.227Z,6.20
2023-03-25T06:31:00.656Z,8.00
2023-03-25T06:33:43.438Z,6.90
2023-03-25T06:36:22.201Z,6.10
2023-03-25T06:39:11.228Z,5.30
2023-03-25T06:41:45.117Z,5.50
2023-03-25T06:44:28.532Z,6.70
2023-03-25T06:47:18.769Z,8.20
2023-03-25T06:50:05.867Z,7.40
2023-03-25T06:52:44.830Z,7.90
2023-03-25T06:55:15.012Z,7.00
2023-03-25T06:57:46.610Z,6.40
2023-03-25T07:00:19.941Z,6.00
2023-03-25T07:02:53.174Z,6.00
2023-03-25T07:05:31.103Z,5.70
2023-03-25T07:08:01.952Z,5.90
2023-03-25T07:10:36.172Z,6.10
2023-03-25T07:13:07.557Z,5.50
2023-03-25T07:15:41.966Z,5.90
2023-03-25T07:18:13.323Z,4.80
2023-03-25T07:20:46.472Z,5.30
2023-03-25T07:23:18.073Z,5.60
2023-03-25T07:25:46.561Z,4.90
2023-03-25T07:28:20.249Z,6.30
2023-03-25T07:30:49.354Z,7.50
2023-03-25T07:33:21.177Z,6.00
2023-03-25T07:35:49.403Z,5.70
2023-03-25T07:38:22.565Z,6.80
2023-03-25T07:40:57.894Z,7.90
2023-03-25T07:43:32.815Z,6.80
2023-03-25T07:46:13.384Z,7.70
2023-03-25T07:48:48.149Z,6.70
2023-03-25T07:54:12.799Z,6.30
2023-03-25T07:56:43.782Z,6.60
2023-03-25T07:59:29.629Z,7.10
2023-03-25T08:02:02.767Z,6.00
2023-03-25T08:04:40.387Z,6.30
2023-03-25T08:07:23.457Z,8.90
2023-03-25T08:10:02.722Z,7.70
2023-03-25T08:12:40.910Z,7.10
2023-03-25T08:15:26.610Z,19.80
2023-03-25T08:18:09.244Z,12.00
2023-03-25T08:20:44.946Z,10.10
2023-03-25T08:23:28.441Z,10.60
2023-03-25T08:26:02.938Z,8.30
2023-03-25T08:28:38.862Z,8.30
2023-03-25T08:31:27.457Z,7.40
2023-03-25T08:34:09.360Z,9.60
2023-03-25T08:36:43.157Z,9.60
2023-03-25T08:39:20.015Z,9.20
2023-03-25T08:41:53.532Z,8.40
2023-03-25T08:44:25.048Z,7.80
2023-03-25T08:47:00.914Z,7.70
2023-03-25T08:49:32.191Z,8.80
2023-03-25T08:52:22.939Z,7.40
2023-03-25T08:54:53.152Z,35.50
2023-03-25T08:57:26.198Z,10.10
2023-03-25T09:00:00.323Z,7.10
2023-03-25T09:02:41.567Z,7.70
2023-03-25T09:05:18.594Z,9.20
2023-03-25T09:08:11.226Z,10.20
2023-03-25T09:11:01.517Z,8.20
2023-03-25T09:13:34.324Z,7.00
2023-03-25T09:16:07.496Z,6.40
2023-03-25T09:18:41.126Z,7.90
2023-03-25T09:21:22.879Z,7.70
2023-03-25T09:23:55.463Z,8.40
2023-03-25T09:26:35.933Z,8.00
2023-03-25T09:29:12.884Z,7.40
2023-03-25T09:31:43.910Z,8.80
2023-03-25T09:34:16.254Z,7.70
2023-03-25T09:36:50.090Z,6.80
2023-03-25T09:39:21.814Z,8.90
2023-03-25T09:45:28.203Z,5.50
2023-03-25T09:48:21.242Z,6.40
2023-03-25T09:50:58.018Z,9.50
2023-03-25T09:54:09.391Z,25.30
2023-03-25T09:56:46.554Z,9.40
2023-03-25T09:59:44.226Z,8.90
2023-03-25T10:02:49.592Z,10.50
2023-03-25T10:05:54.542Z,8.40
2023-03-25T10:08:46.583Z,9.60
2023-03-25T10:11:42.028Z,5.80
2023-03-25T10:14:50.926Z,6.20
2023-03-25T10:17:58.985Z,4.80
2023-03-25T10:21:15.314Z,5.10
2023-03-25T10:24:08.412Z,5.80
2023-03-25T10:27:08.370Z,7.40
2023-03-25T10:30:15.278Z,7.00
2023-03-25T10:33:10.170Z,6.30
2023-03-25T10:35:47.399Z,5.20
2023-03-25T10:38:25.858Z,5.70
2023-03-25T10:41:26.321Z,5.40
2023-03-25T10:43:59.906Z,5.30
2023-03-25T10:46:54.759Z,5.40
2023-03-25T10:49:30.311Z,5.70
2023-03-25T10:52:02.656Z,5.00
2023-03-25T10:54:42.043Z,5.60
2023-03-25T10:57:32.403Z,7.40
2023-03-25T11:00:23.225Z,25.60
2023-03-25T11:02:54.567Z,12.30
2023-03-25T11:05:31.773Z,5.40
2023-03-25T11:08:18.250Z,5.60
2023-03-25T11:11:00.453Z,4.70
2023-03-25T11:13:32.589Z,3.90
2023-03-25T11:16:23.129Z,5.10
2023-03-25T11:19:05.745Z,7.10
2023-03-25T11:21:49.784Z,9.30
2023-03-25T11:24:47.837Z,5.90
2023-03-25T11:27:30.149Z,6.10
2023-03-25T11:30:19.527Z,8.00
2023-03-25T11:33:28.142Z,9.40
2023-03-25T11:36:46.589Z,38.70
2023-03-25T11:39:43.676Z,18.90
2023-03-25T11:42:28.363Z,10.50
2023-03-25T11:45:26.680Z,7.10
2023-03-25T11:48:32.755Z,6.40
2023-03-25T11:51:06.754Z,5.20
2023-03-25T11:53:58.723Z,5.20
2023-03-25T11:56:53.719Z,3.50
2023-03-25T11:59:54.366Z,4.10
2023-03-25T12:02:40.859Z,3.40
2023-03-25T12:05:12.838Z,3.80
2023-03-25T12:07:58.642Z,3.50
2023-03-25T12:10:59.652Z,4.10
2023-03-25T12:14:32.875Z,3.20
2023-03-25T12:17:38.427Z,2.10
2023-03-25T12:20:21.547Z,3.00
2023-03-25T12:23:27.402Z,3.10
2023-03-25T12:26:13.066Z,2.20
2023-03-25T12:29:26.484Z,2.90
2023-03-25T12:32:30.705Z,3.10
2023-03-25T12:36:06.094Z,5.70
2023-03-25T12:39:35.611Z,3.60
2023-03-25T12:42:45.535Z,3.40
2023-03-25T12:45:50.449Z,2.70
2023-03-25T12:48:55.131Z,3.40
2023-03-25T12:52:21.184Z,2.90
2023-03-25T12:55:45.756Z,3.70
2023-03-25T12:59:05.764Z,2.90
2023-03-25T13:02:09.535Z,3.40
2023-03-25T13:05:06.041Z,3.00
2023-03-25T13:07:42.002Z,2.90
2023-03-25T13:10:24.863Z,2.80
2023-03-25T13:13:18.139Z,3.60
2023-03-25T13:16:28.191Z,3.10
2023-03-25T13:19:17.882Z,3.80
2023-03-25T13:22:13.223Z,3.50
2023-03-25T13:25:02.424Z,4.10
2023-03-25T13:27:40.149Z,4.30
2023-03-25T13:30:53.071Z,7.80
2023-03-25T13:33:40.212Z,3.00
2023-03-25T13:36:30.873Z,2.10
2023-03-25T13:39:31.533Z,2.50
2023-03-25T13:42:57.890Z,4.00
2023-03-25T13:45:44.357Z,3.50
2023-03-25T13:48:35.963Z,3.80
2023-03-25T13:51:15.158Z,4.50
2023-03-25T13:53:56.089Z,5.00
2023-03-25T13:56:52.677Z,5.90
2023-03-25T14:00:07.908Z,3.30
2023-03-25T14:03:37.488Z,3.00
2023-03-25T14:06:32.504Z,4.20
2023-03-25T14:09:42.619Z,3.80
2023-03-25T14:12:44.655Z,3.60
2023-03-25T14:15:51.536Z,3.70
2023-03-25T14:18:31.879Z,3.90
2023-03-25T14:21:31.072Z,5.30
2023-03-25T14:24:31.841Z,4.90
2023-03-25T14:28:03.150Z,5.40
2023-03-25T14:31:21.828Z,6.50
2023-03-25T14:34:13.597Z,6.50
2023-03-25T14:36:51.864Z,6.70
2023-03-25T14:39:38.493Z,5.10
2023-03-25T14:46:27.265Z,4.30
2023-03-25T14:49:12.904Z,4.50
2023-03-25T14:52:03.695Z,3.70
2023-03-25T14:54:43.069Z,3.60
2023-03-25T14:58:05.028Z,3.10
2023-03-25T15:01:18.255Z,3.20
2023-03-25T15:04:11.342Z,4.30
2023-03-25T15:06:48.973Z,5.50
2023-03-25T15:09:23.353Z,6.30
2023-03-25T15:15:11.800Z,4.80
2023-03-25T15:18:04.460Z,4.10
2023-03-25T15:21:02.366Z,7.00
2023-03-25T15:23:59.638Z,7.90
2023-03-25T15:27:04.158Z,7.00
2023-03-25T15:30:12.046Z,4.70
2023-03-25T15:33:13.012Z,4.20
2023-03-25T15:37:10.844Z,30.70
2023-03-25T15:40:50.714Z,5.80
2023-03-25T15:44:19.867Z,4.60
2023-03-25T15:47:33.466Z,4.70
2023-03-25T15:50:35.067Z,5.80
2023-03-25T15:53:46.488Z,5.00
2023-03-25T15:57:12.679Z,4.50
2023-03-25T16:00:24.173Z,6.90
2023-03-25T16:03:24.643Z,5.50
2023-03-25T16:06:23.008Z,6.80
2023-03-25T16:09:55.684Z,5.10
2023-03-25T16:13:14.114Z,6.60
2023-03-25T16:16:10.490Z,7.30
2023-03-25T16:19:51.303Z,8.30
2023-03-25T16:22:58.924Z,6.30
2023-03-25T16:25:59.870Z,6.90
2023-03-25T16:28:46.679Z,8.40
2023-03-25T16:31:50.892Z,13.00
2023-03-25T16:34:34.453Z,8.40
2023-03-25T16:37:10.031Z,6.30
2023-03-25T16:39:45.476Z,30.30
2023-03-25T16:42:50.522Z,8.50
2023-03-25T16:45:30.034Z,7.60
2023-03-25T16:48:39.006Z,8.70
2023-03-25T16:51:25.356Z,9.20
2023-03-25T16:54:48.518Z,9.10
2023-03-25T16:57:37.236Z,7.40
2023-03-25T17:00:46.135Z,8.00
2023-03-25T17:03:48.744Z,19.40
2023-03-25T17:06:45.673Z,32.90
2023-03-25T17:09:35.890Z,55.20
2023-03-25T17:12:26.176Z,49.10
2023-03-25T17:15:13.894Z,33.00
2023-03-25T17:18:18.542Z,33.30
2023-03-25T17:21:02.080Z,25.20
2023-03-25T17:23:52.129Z,40.30
2023-03-25T17:27:00.431Z,16.30
2023-03-25T17:29:49.071Z,12.70
2023-03-25T17:32:34.724Z,11.60
2023-03-25T17:35:32.475Z,13.00
2023-03-25T17:38:08.598Z,15.10
2023-03-25T17:40:41.890Z,17.80
2023-03-25T17:43:31.117Z,28.10
2023-03-25T17:46:23.224Z,22.80
2023-03-25T17:49:19.567Z,18.40
2023-03-25T17:51:57.846Z,14.50
2023-03-25T17:54:55.804Z,15.20
2023-03-25T17:57:37.331Z,16.00
2023-03-25T18:00:20.732Z,16.40
2023-03-25T18:03:02.165Z,16.80
2023-03-25T18:05:35.389Z,17.80
2023-03-25T18:08:16.432Z,17.10
2023-03-25T18:10:53.414Z,18.50
2023-03-25T18:13:26.812Z,15.80
2023-03-25T18:16:05.916Z,13.70
2023-03-25T18:18:41.258Z,14.00
2023-03-25T18:21:17.793Z,26.10
2023-03-25T18:23:48.507Z,18.80
2023-03-25T18:26:22.352Z,21.00
2023-03-25T18:29:02.809Z,19.40
2023-03-25T18:31:42.056Z,20.60
2023-03-25T18:34:26.632Z,20.80
2023-03-25T18:37:05.016Z,21.20
2023-03-25T18:39:40.917Z,20.70
2023-03-25T18:42:36.112Z,29.10
2023-03-25T18:45:20.423Z,25.80
2023-03-25T18:48:02.890Z,18.90
2023-03-25T18:50:46.222Z,19.70
2023-03-25T18:53:42.785Z,12.70
2023-03-25T18:56:43.763Z,12.10
2023-03-25T18:59:51.014Z,11.10
2023-03-25T19:02:54.400Z,13.40
2023-03-25T19:05:59.908Z,18.20
2023-03-25T19:09:15.221Z,16.00
2023-03-25T19:12:12.204Z,41.60
2023-03-25T19:14:51.422Z,21.30
2023-03-25T19:21:17.896Z,14.60
2023-03-25T19:24:26.837Z,12.00
2023-03-25T19:27:05.156Z,12.20
2023-03-25T19:29:52.176Z,12.20
2023-03-25T19:32:31.228Z,13.10
2023-03-25T19:35:07.881Z,11.40
2023-03-25T19:38:07.536Z,9.20
2023-03-25T19:40:42.423Z,8.10
2023-03-25T19:43:29.408Z,7.90
2023-03-25T19:46:11.411Z,7.30
2023-03-25T19:49:04.008Z,14.10
2023-03-25T19:52:09.098Z,9.20
2023-03-25T19:55:06.083Z,9.90
2023-03-25T19:57:53.217Z,9.10
2023-03-25T20:00:33.180Z,9.80
2023-03-25T20:03:33.301Z,11.40
2023-03-25T20:06:08.640Z,12.60
2023-03-25T20:08:48.542Z,13.40
2023-03-25T20:11:36.271Z,13.00
2023-03-25T20:14:26.311Z,13.90
2023-03-25T20:17:15.172Z,11.40
2023-03-25T20:19:51.629Z,11.20
2023-03-25T20:22:43.575Z,12.40
2023-03-25T20:25:40.821Z,12.00
2023-03-25T20:28:29.979Z,12.40
2023-03-25T20:31:20.795Z,12.30
2023-03-25T20:34:04.469Z,13.70
2023-03-25T20:36:37.310Z,11.50
2023-03-25T20:39:13.880Z,11.90
2023-03-25T20:41:54.757Z,8.90
2023-03-25T20:44:28.818Z,10.10
2023-03-25T20:46:57.522Z,10.80
2023-03-25T20:49:40.107Z,8.70
2023-03-25T20:52:21.729Z,8.20
2023-03-25T20:54:59.189Z,8.40
2023-03-25T20:57:31.708Z,7.30
2023-03-25T21:00:07.530Z,6.60
2023-03-25T21:02:58.139Z,5.10
2023-03-25T21:06:07.397Z,10.80
2023-03-25T21:09:09.740Z,7.90
2023-03-25T21:11:40.917Z,7.00
2023-03-25T21:14:21.390Z,8.70
2023-03-25T21:16:49.900Z,8.90
2023-03-25T21:19:21.517Z,7.80
2023-03-25T21:22:00.615Z,8.20
2023-03-25T21:24:31.044Z,7.90
2023-03-25T21:27:00.161Z,8.60
2023-03-25T21:29:37.756Z,9.60
2023-03-25T21:32:14.813Z,10.10
2023-03-25T21:34:51.240Z,9.40
2023-03-25T21:37:20.357Z,11.10
2023-03-25T21:40:03.390Z,13.20
2023-03-25T21:42:34.105Z,15.60
2023-03-25T21:45:06.544Z,14.20
2023-03-25T21:47:36.855Z,13.90
2023-03-25T21:50:09.396Z,11.00
2023-03-25T21:52:49.392Z,10.40
2023-03-25T21:55:33.636Z,67.10
2023-03-25T21:58:10.100Z,19.10
2023-03-25T22:00:43.994Z,10.60
2023-03-25T22:03:20.800Z,8.60
2023-03-25T22:06:26.874Z,8.40
2023-03-25T22:09:08.450Z,8.40
2023-03-25T22:11:37.240Z,8.10
2023-03-25T22:14:09.513Z,8.20
2023-03-25T22:16:43.357Z,10.20
2023-03-25T22:19:24.048Z,9.00
2023-03-25T22:22:01.645Z,10.30
2023-03-25T22:24:33.046Z,9.60
2023-03-25T22:27:15.998Z,8.10
2023-03-25T22:30:07.290Z,8.00
2023-03-25T22:32:42.376Z,7.60
2023-03-25T22:35:13.701Z,8.00
2023-03-25T22:37:42.604Z,8.50
2023-03-25T22:40:14.867Z,9.40
2023-03-25T22:42:43.247Z,8.10
2023-03-25T22:45:12.079Z,8.10
2023-03-25T22:47:51.948Z,9.30
2023-03-25T22:50:25.858Z,7.50
2023-03-25T22:53:04.188Z,7.50
2023-03-25T22:55:34.427Z,6.20
2023-03-25T22:58:03.217Z,6.00
2023-03-25T23:00:38.935Z,8.30
2023-03-25T23:03:12.784Z,8.40
2023-03-25T23:06:04.406Z,6.80
2023-03-25T23:08:47.007Z,6.60
2023-03-25T23:11:25.943Z,6.10
2023-03-25T23:14:07.132Z,5.50
2023-03-25T23:16:43.339Z,4.80
2023-03-25T23:19:13.543Z,5.10
2023-03-25T23:21:45.296Z,5.50
2023-03-25T23:24:21.657Z,5.90
2023-03-25T23:27:02.498Z,5.80
2023-03-25T23:29:32.856Z,5.30
2023-03-25T23:32:10.026Z,4.50
2023-03-25T23:34:41.074Z,5.00
2023-03-25T23:37:13.085Z,5.70
2023-03-25T23:39:45.695Z,7.10
2023-03-25T23:42:17.468Z,7.00
2023-03-25T23:44:56.707Z,6.70
2023-03-25T23:47:28.008Z,5.80
2023-03-25T23:50:12.169Z,7.10
2023-03-25T23:52:50.842Z,6.00
2023-03-25T23:55:25.399Z,7.00
2023-03-25T23:58:02.308Z,6.90
